Time;durP1;ratioP1;P1;durP2;ratioP2;P2;SDS_P1;SDS_P2;PMS_P1;PMS_P2;Temp;Humidity;BMP_temperature;BMP_pressure;BME280_temperature;BME280_humidity;BME280_pressure;Samples;Min_cycle;Max_cycle;Signal;HPM_P1;HPM_P2
2024/04/14 00:00:59;;;;;;;13.52;4.03;;;;;;;14.64;85.19;64618.41;5431539;26;20768;-71
2024/04/14 00:03:25;;;;;;;15.40;4.30;;;;;;;14.63;85.59;64640.94;5435149;26;20073;-72
2024/04/14 00:05:51;;;;;;;14.00;4.35;;;;;;;14.61;85.63;64635.50;5424985;26;20076;-72
2024/04/14 00:08:18;;;;;;;14.82;4.18;;;;;;;14.62;85.92;64634.00;5431658;26;19999;-71
2024/04/14 00:10:44;;;;;;;12.85;4.05;;;;;;;14.64;85.54;64678.94;5434106;26;20002;-71
2024/04/14 00:13:10;;;;;;;14.10;4.05;;;;;;;14.77;85.21;64637.19;5432985;26;20005;-71
2024/04/14 00:15:36;;;;;;;14.02;4.32;;;;;;;14.78;85.32;64652.06;5429036;26;20453;-71
2024/04/14 00:18:02;;;;;;;13.85;4.10;;;;;;;14.72;85.05;64661.06;5394894;26;19995;-71
2024/04/14 00:20:28;;;;;;;14.55;3.90;;;;;;;14.67;85.37;64637.56;5430169;26;20114;-71
2024/04/14 00:22:54;;;;;;;14.45;4.10;;;;;;;14.62;85.83;64618.78;5430743;26;20007;-71
2024/04/14 00:25:20;;;;;;;13.18;3.90;;;;;;;14.70;86.04;64635.69;5432020;26;19996;-72
2024/04/14 00:27:47;;;;;;;14.23;4.38;;;;;;;14.74;85.43;64665.41;5417219;26;20008;-72
2024/04/14 00:30:13;;;;;;;14.80;4.10;;;;;;;14.75;86.04;64645.47;5441224;26;20003;-73
2024/04/14 00:32:40;;;;;;;13.85;3.97;;;;;;;14.80;85.34;64677.44;5428944;26;20010;-73
2024/04/14 00:35:06;;;;;;;13.45;3.90;;;;;;;14.66;86.37;64627.97;5416610;26;20043;-72
2024/04/14 00:37:32;;;;;;;14.13;3.97;;;;;;;14.66;86.42;64641.72;5417748;26;20000;-71
2024/04/14 00:39:58;;;;;;;15.35;4.20;;;;;;;14.67;86.24;64597.53;5418643;26;20018;-71
2024/04/14 00:42:24;;;;;;;13.60;3.80;;;;;;;14.75;85.74;64675.00;5433718;26;20466;-72
2024/04/14 00:44:50;;;;;;;14.15;4.20;;;;;;;14.73;85.86;64635.88;5426121;26;20006;-72
2024/04/14 00:47:16;;;;;;;14.45;4.38;;;;;;;14.71;86.12;64631.00;5422900;26;20010;-72
2024/04/14 00:49:43;;;;;;;13.85;3.90;;;;;;;14.68;86.21;64632.84;5437937;26;19991;-72
2024/04/14 00:52:09;;;;;;;13.95;4.05;;;;;;;14.63;86.59;64627.78;5401146;26;20014;-72
2024/04/14 00:54:36;;;;;;;13.27;4.10;;;;;;;14.61;86.78;64659.19;5422253;26;19995;-71
2024/04/14 00:57:03;;;;;;;13.57;4.15;;;;;;;14.57;86.79;64623.09;5401106;26;20019;-73
2024/04/14 00:59:30;;;;;;;12.88;4.03;;;;;;;14.57;86.90;64586.25;5409478;26;20358;-72
2024/04/14 01:01:56;;;;;;;12.73;4.03;;;;;;;14.63;86.53;64614.63;5390399;26;20686;-73
2024/04/14 01:04:22;;;;;;;13.52;4.13;;;;;;;14.62;86.63;64647.16;5437511;26;19999;-71
2024/04/14 01:06:49;;;;;;;14.63;3.85;;;;;;;14.65;87.19;64653.75;5422519;26;19995;-72
2024/04/14 01:09:15;;;;;;;13.80;3.83;;;;;;;14.70;86.70;64622.53;5397875;26;20015;-71
2024/04/14 01:11:41;;;;;;;15.02;4.07;;;;;;;14.72;86.60;64668.97;5432330;26;20435;-72
2024/04/14 01:14:08;;;;;;;13.57;4.20;;;;;;;14.78;86.18;64648.84;5401331;26;20003;-72
2024/04/14 01:16:36;;;;;;;15.27;4.10;;;;;;;14.82;86.10;64645.47;5421183;26;20015;-71
2024/04/14 01:19:03;;;;;;;15.65;4.10;;;;;;;14.83;86.32;64659.75;5412257;26;19995;-73
2024/04/14 01:21:29;;;;;;;13.75;4.25;;;;;;;14.87;85.92;64651.66;5429463;26;20500;-73
2024/04/14 01:23:55;;;;;;;14.30;4.20;;;;;;;14.88;85.71;64689.09;5442150;26;20005;-71
2024/04/14 01:26:22;;;;;;;13.85;4.05;;;;;;;14.91;85.86;64679.31;5421397;26;20075;-71
2024/04/14 01:28:48;;;;;;;14.65;3.75;;;;;;;14.89;86.13;64674.44;5429717;26;20532;-71
2024/04/14 01:31:14;;;;;;;14.65;3.92;;;;;;;14.84;85.99;64655.59;5419893;26;20000;-71
2024/04/14 01:33:40;;;;;;;13.40;4.05;;;;;;;14.80;86.42;64643.78;5425548;26;20002;-71
2024/04/14 01:36:07;;;;;;;12.57;4.28;;;;;;;14.76;86.93;64625.53;5406902;26;20518;-71
2024/04/14 01:38:34;;;;;;;13.95;4.20;;;;;;;14.73;86.77;64661.66;5441056;26;19999;-72
2024/04/14 01:41:00;;;;;;;13.27;4.15;;;;;;;14.77;87.35;64684.59;5433554;26;20017;-71
2024/04/14 01:43:27;;;;;;;14.43;4.32;;;;;;;14.72;87.69;64671.59;5398921;26;20015;-71
2024/04/14 01:45:53;;;;;;;15.50;4.43;;;;;;;14.71;87.78;64691.53;5435461;26;19995;-73
2024/04/14 01:48:19;;;;;;;14.57;4.20;;;;;;;14.62;88.07;64629.31;5439824;26;20453;-72
2024/04/14 01:50:45;;;;;;;15.18;4.20;;;;;;;14.62;88.73;64628.72;5441004;26;19999;-72
2024/04/14 01:53:12;;;;;;;13.65;4.30;;;;;;;14.64;88.68;64636.81;5398997;26;20034;-73
2024/04/14 01:55:38;;;;;;;13.82;3.97;;;;;;;14.55;88.87;64605.59;5436814;26;20001;-72
2024/04/14 01:58:04;;;;;;;14.73;4.40;;;;;;;14.50;89.60;64621.56;5408864;26;19999;-72
2024/04/14 02:00:30;;;;;;;15.65;4.15;;;;;;;14.49;89.76;64596.75;5421057;26;20008;-72
2024/04/14 02:02:56;;;;;;;14.30;4.28;;;;;;;14.53;89.27;64619.13;5427046;26;20463;-72
2024/04/14 02:05:23;;;;;;;14.57;4.50;;;;;;;14.46;89.41;64617.06;5429890;26;20000;-72
2024/04/14 02:07:49;;;;;;;13.38;4.20;;;;;;;14.50;89.42;64640.00;5398447;26;19999;-71
2024/04/14 02:10:15;;;;;;;13.93;4.43;;;;;;;14.55;89.17;64631.34;5426726;26;20004;-73
2024/04/14 02:12:41;;;;;;;15.35;4.43;;;;;;;14.55;89.01;64666.13;5430971;26;19996;-72
2024/04/14 02:15:07;;;;;;;14.52;4.68;;;;;;;14.46;89.74;64655.97;5390255;26;20339;-72
2024/04/14 02:17:33;;;;;;;15.20;4.68;;;;;;;14.39;90.31;64622.31;5419753;26;20000;-73
2024/04/14 02:19:59;;;;;;;15.32;4.85;;;;;;;14.36;90.64;64610.47;5437534;26;20430;-72
2024/04/14 02:22:25;;;;;;;15.55;4.35;;;;;;;14.33;90.67;64591.88;5420982;26;20105;-72
2024/04/14 02:24:51;;;;;;;16.95;4.90;;;;;;;14.30;91.28;64591.69;5430285;26;19999;-72
2024/04/14 02:27:17;;;;;;;14.38;4.45;;;;;;;14.32;91.03;64651.25;5429550;26;20063;-72
2024/04/14 02:29:43;;;;;;;14.50;4.40;;;;;;;14.32;91.23;64617.03;5397958;26;20458;-71
2024/04/14 02:32:10;;;;;;;14.95;4.68;;;;;;;14.32;91.18;64614.41;5431809;26;20036;-71
2024/04/14 02:34:36;;;;;;;14.30;4.40;;;;;;;14.29;91.39;64598.44;5443721;26;20011;-74
2024/04/14 02:37:02;;;;;;;14.45;4.55;;;;;;;14.23;91.81;64588.50;5432910;26;20356;-74
2024/04/14 02:39:28;;;;;;;15.25;4.47;;;;;;;14.20;92.15;64598.25;5435695;26;20026;-72
2024/04/14 02:41:54;;;;;;;14.90;4.57;;;;;;;14.18;92.23;64559.16;5416360;26;20000;-73
2024/04/14 02:44:21;;;;;;;16.15;4.35;;;;;;;14.16;92.49;64578.50;5426867;26;20060;-71
2024/04/14 02:46:47;;;;;;;16.05;4.97;;;;;;;14.13;92.69;64599.38;5439058;26;20323;-72
2024/04/14 02:49:13;;;;;;;15.20;4.70;;;;;;;14.13;93.08;64593.56;5431429;26;20064;-72
2024/04/14 02:51:41;;;;;;;15.13;4.68;;;;;;;14.04;93.29;64583.41;5436311;26;20007;-71
2024/04/14 02:54:07;;;;;;;14.63;4.93;;;;;;;13.99;93.67;64559.38;5430881;26;20007;-71
2024/04/14 02:56:34;;;;;;;16.05;4.85;;;;;;;14.06;93.93;64598.81;5429330;26;20003;-71
2024/04/14 02:59:00;;;;;;;14.95;4.85;;;;;;;14.05;93.78;64547.72;5388117;26;20004;-72
2024/04/14 03:01:26;;;;;;;15.63;5.10;;;;;;;14.00;93.81;64597.84;5398856;26;19998;-72
2024/04/14 03:03:52;;;;;;;15.63;4.82;;;;;;;13.99;93.93;64548.84;5397585;26;19995;-72
2024/04/14 03:06:18;;;;;;;15.25;4.97;;;;;;;13.89;94.56;64532.88;5441607;26;20316;-73
2024/04/14 03:08:44;;;;;;;14.80;4.88;;;;;;;13.88;94.83;64548.06;5394993;26;20003;-73
2024/04/14 03:11:10;;;;;;;14.88;4.78;;;;;;;13.84;95.13;64548.81;5436725;26;20050;-73
2024/04/14 03:13:37;;;;;;;16.65;4.63;;;;;;;13.95;94.67;64529.13;5434502;26;19999;-71
2024/04/14 03:16:03;;;;;;;16.60;4.80;;;;;;;13.98;94.38;64555.59;5431659;26;20140;-71
2024/04/14 03:18:30;;;;;;;15.77;5.05;;;;;;;14.01;94.66;64564.25;5408254;26;20018;-71
2024/04/14 03:21:00;;;;;;;16.13;5.13;;;;;;;14.09;94.17;64565.94;5425392;26;20002;-71
2024/04/14 03:23:27;;;;;;;15.35;4.78;;;;;;;14.07;94.13;64555.22;5433153;26;20035;-71
2024/04/14 03:25:53;;;;;;;14.77;4.60;;;;;;;14.08;94.12;64549.00;5432778;26;19999;-73
2024/04/14 03:28:24;;;;;;;16.27;4.90;;;;;;;14.02;94.51;64573.25;5394415;26;20007;-71
2024/04/14 03:30:50;;;;;;;14.55;4.70;;;;;;;14.02;94.82;64575.88;5389746;26;20089;-71
2024/04/14 03:33:17;;;;;;;14.90;4.82;;;;;;;13.94;95.29;64556.91;5429517;26;20075;-72
2024/04/14 03:35:43;;;;;;;15.30;5.10;;;;;;;13.90;95.33;64570.81;5428748;26;20006;-73
2024/04/14 03:38:09;;;;;;;14.80;4.90;;;;;;;14.06;94.89;64528.34;5397582;26;20011;-73
2024/04/14 03:40:35;;;;;;;15.38;4.80;;;;;;;13.86;95.57;64551.06;5428597;26;20006;-72
2024/04/14 03:43:01;;;;;;;15.75;5.28;;;;;;;13.85;96.10;64549.97;5428427;26;20019;-71
2024/04/14 03:45:27;;;;;;;14.85;4.43;;;;;;;13.83;96.51;64566.09;5430940;26;20009;-71
2024/04/14 03:47:53;;;;;;;15.20;5.20;;;;;;;13.84;96.52;64543.00;5392412;26;20428;-71
2024/04/14 03:50:20;;;;;;;16.45;4.82;;;;;;;13.80;97.09;64522.72;5436670;26;20009;-71
2024/04/14 03:52:46;;;;;;;14.88;4.63;;;;;;;13.78;97.36;64491.56;5397903;26;20039;-72
2024/04/14 03:55:12;;;;;;;15.55;4.88;;;;;;;13.78;97.35;64552.03;5423339;26;20526;-72
2024/04/14 03:57:38;;;;;;;14.82;4.80;;;;;;;13.85;96.94;64565.72;5442804;26;20421;-72
2024/04/14 04:00:05;;;;;;;15.52;4.97;;;;;;;13.79;97.35;64537.94;5429154;26;19999;-71
2024/04/14 04:02:31;;;;;;;14.68;4.78;;;;;;;13.74;97.84;64508.63;5413693;26;19999;-71
2024/04/14 04:04:57;;;;;;;15.88;4.60;;;;;;;13.72;98.21;64524.78;5417542;26;20008;-71
2024/04/14 04:07:23;;;;;;;14.73;4.50;;;;;;;13.76;97.95;64539.81;5432230;26;20023;-71
2024/04/14 04:09:52;;;;;;;14.23;4.88;;;;;;;13.79;97.35;64547.91;5433111;26;20007;-71
2024/04/14 04:12:19;;;;;;;14.95;4.68;;;;;;;13.72;97.85;64543.75;5436594;26;20071;-71
2024/04/14 04:14:45;;;;;;;15.70;5.30;;;;;;;13.71;98.06;64528.94;5425206;26;20014;-72
2024/04/14 04:17:11;;;;;;;16.92;4.80;;;;;;;13.78;97.75;64528.34;5440262;26;20071;-73
2024/04/14 04:19:37;;;;;;;16.42;4.80;;;;;;;13.78;97.48;64536.25;5421630;26;19992;-73
2024/04/14 04:22:03;;;;;;;15.45;5.30;;;;;;;13.78;97.39;64546.75;5431332;26;20000;-71
2024/04/14 04:24:29;;;;;;;16.50;4.60;;;;;;;13.76;97.78;64573.41;5432839;26;20023;-73
2024/04/14 04:26:55;;;;;;;18.33;5.00;;;;;;;13.77;97.81;64535.09;5446508;26;20028;-73
2024/04/14 04:29:24;;;;;;;15.43;4.88;;;;;;;13.81;98.02;64542.25;5431257;26;19999;-70
2024/04/14 04:31:51;;;;;;;16.02;4.82;;;;;;;13.78;98.23;64488.94;5432051;26;20010;-72
2024/04/14 04:34:17;;;;;;;14.95;4.80;;;;;;;13.81;98.25;64561.22;5423846;26;19991;-71
2024/04/14 04:36:45;;;;;;;14.23;4.70;;;;;;;13.85;97.83;64523.13;5420987;26;20000;-72
2024/04/14 04:39:11;;;;;;;15.90;4.88;;;;;;;13.91;97.85;64529.88;5437394;26;20045;-72
2024/04/14 04:41:37;;;;;;;15.43;4.90;;;;;;;13.93;97.64;64543.19;5439689;26;19995;-73
2024/04/14 04:44:04;;;;;;;14.57;4.53;;;;;;;13.91;97.99;64556.16;5441257;26;19999;-73
2024/04/14 04:46:31;;;;;;;17.02;4.80;;;;;;;13.89;97.87;64522.38;5422306;26;20006;-72
2024/04/14 04:48:57;;;;;;;15.95;4.90;;;;;;;13.87;98.39;64556.91;5396753;26;20405;-71
2024/04/14 04:51:23;;;;;;;14.25;4.70;;;;;;;13.97;98.08;64541.34;5444197;26;20003;-72
2024/04/14 04:53:49;;;;;;;15.65;4.75;;;;;;;14.00;98.02;64558.41;5430055;26;20014;-72
2024/04/14 04:56:15;;;;;;;15.48;5.28;;;;;;;13.97;97.65;64560.31;5393713;26;20423;-72
2024/04/14 04:58:42;;;;;;;15.35;4.85;;;;;;;13.82;99.06;64546.00;5429409;26;19996;-72
2024/04/14 05:01:09;;;;;;;17.00;4.80;;;;;;;13.87;98.96;64570.63;5421345;26;20003;-73
2024/04/14 05:03:36;;;;;;;16.48;5.00;;;;;;;13.99;98.11;64569.88;5396871;26;20007;-71
2024/04/14 05:06:03;;;;;;;16.48;4.97;;;;;;;14.11;97.15;64568.19;5434728;26;20003;-71
2024/04/14 05:08:29;;;;;;;15.40;4.90;;;;;;;14.19;96.80;64539.25;5389961;26;20000;-72
2024/04/14 05:10:57;;;;;;;15.18;4.80;;;;;;;14.24;96.11;64600.69;5386727;26;20003;-72
2024/04/14 05:13:24;;;;;;;15.32;5.13;;;;;;;14.35;95.83;64612.53;5440378;26;20015;-71
2024/04/14 05:15:50;;;;;;;16.48;4.68;;;;;;;14.55;94.53;64618.19;5426946;26;20072;-71
2024/04/14 05:18:16;;;;;;;16.02;5.18;;;;;;;14.59;94.54;64643.78;5394310;26;20031;-71
2024/04/14 05:20:43;;;;;;;15.23;4.72;;;;;;;14.55;94.47;64637.16;5430584;26;20043;-72
2024/04/14 05:23:09;;;;;;;15.40;4.95;;;;;;;14.57;93.13;64641.53;5443075;26;20009;-71
2024/04/14 05:25:36;;;;;;;14.77;5.15;;;;;;;14.63;90.18;64614.06;5437911;26;20330;-71
2024/04/14 05:28:02;;;;;;;14.68;4.82;;;;;;;14.64;89.48;64636.25;5399791;26;20014;-73
2024/04/14 05:30:29;;;;;;;15.90;5.20;;;;;;;14.57;88.87;64644.72;5423651;26;20013;-73
2024/04/14 05:32:57;;;;;;;15.15;5.05;;;;;;;14.48;89.63;64610.84;5437446;26;19999;-73
2024/04/14 05:35:23;;;;;;;15.80;5.28;;;;;;;14.36;91.54;64611.03;5438008;26;20386;-73
2024/04/14 05:37:49;;;;;;;16.92;5.60;;;;;;;14.31;93.29;64590.16;5400944;26;20014;-71
2024/04/14 05:40:15;;;;;;;16.38;5.40;;;;;;;14.27;94.42;64583.03;5410368;26;19999;-71
2024/04/14 05:42:41;;;;;;;15.68;5.35;;;;;;;14.21;94.72;64578.34;5400364;26;20007;-72
2024/04/14 05:45:08;;;;;;;16.83;5.28;;;;;;;14.21;94.37;64602.56;5433678;26;19999;-72
2024/04/14 05:47:35;;;;;;;16.63;5.20;;;;;;;14.24;92.73;64560.66;5401664;26;20086;-71
2024/04/14 05:50:01;;;;;;;17.08;6.20;;;;;;;14.22;91.92;64608.94;5402857;26;20007;-72
2024/04/14 05:52:27;;;;;;;16.20;5.18;;;;;;;14.28;91.01;64605.22;5420338;26;20407;-72
2024/04/14 05:54:53;;;;;;;17.25;5.53;;;;;;;14.31;90.60;64626.44;5424938;26;19995;-72
2024/04/14 05:57:19;;;;;;;15.85;5.05;;;;;;;14.29;89.80;64601.06;5449976;26;20007;-72
2024/04/14 05:59:45;;;;;;;17.83;4.95;;;;;;;14.30;88.00;64575.91;5419457;26;20457;-72
2024/04/14 06:02:12;;;;;;;19.13;5.07;;;;;;;14.35;87.51;64588.31;5439446;26;20014;-71
2024/04/14 06:04:38;;;;;;;16.10;4.78;;;;;;;14.38;87.17;64639.59;5439550;26;20023;-72
2024/04/14 06:07:04;;;;;;;15.90;4.30;;;;;;;14.41;87.56;64577.22;5448587;26;20010;-71
2024/04/14 06:09:30;;;;;;;18.20;4.72;;;;;;;14.47;86.02;64620.25;5423163;26;20003;-71
2024/04/14 06:11:56;;;;;;;17.45;5.10;;;;;;;14.53;85.82;64609.16;5425349;26;19999;-71
2024/04/14 06:14:25;;;;;;;14.10;4.10;;;;;;;14.59;85.82;64633.81;5446880;26;19995;-71
2024/04/14 06:16:51;;;;;;;15.40;4.40;;;;;;;14.59;85.88;64588.50;5426187;26;20010;-72
2024/04/14 06:19:18;;;;;;;14.68;4.45;;;;;;;14.62;86.18;64649.78;5437560;26;20412;-72
2024/04/14 06:21:45;;;;;;;14.45;4.13;;;;;;;14.78;85.21;64633.03;5424555;26;20008;-72
2024/04/14 06:24:11;;;;;;;16.13;4.78;;;;;;;14.83;86.04;64676.13;5421875;26;20077;-73
2024/04/14 06:26:37;;;;;;;15.02;4.60;;;;;;;14.92;85.43;64677.81;5424803;26;19995;-72
2024/04/14 06:29:03;;;;;;;16.13;4.50;;;;;;;14.96;84.04;64642.84;5434432;26;19999;-72
2024/04/14 06:31:29;;;;;;;16.13;4.75;;;;;;;14.99;84.78;64712.06;5434257;26;20017;-73
2024/04/14 06:33:55;;;;;;;16.58;4.30;;;;;;;15.06;83.88;64703.56;5432218;26;20090;-72
2024/04/14 06:36:21;;;;;;;16.25;4.20;;;;;;;15.10;84.11;64700.78;5430792;26;19999;-71
2024/04/14 06:38:47;;;;;;;16.55;4.47;;;;;;;15.15;83.77;64684.22;5426582;26;19999;-71
2024/04/14 06:41:14;;;;;;;16.38;4.53;;;;;;;15.26;84.23;64717.69;5437190;26;20103;-71
2024/04/14 06:43:40;;;;;;;15.52;4.35;;;;;;;15.25;82.20;64713.94;5400047;26;20068;-71
2024/04/14 06:46:06;;;;;;;15.40;4.60;;;;;;;15.31;81.76;64725.97;5407808;26;20073;-71
2024/04/14 06:48:33;;;;;;;16.52;4.63;;;;;;;15.21;81.98;64680.44;5424240;26;19995;-73
2024/04/14 06:50:59;;;;;;;15.45;4.55;;;;;;;15.30;81.30;64704.34;5404366;26;19995;-74
2024/04/14 06:53:25;;;;;;;15.52;4.68;;;;;;;15.22;82.62;64692.69;5421857;26;20574;-73
2024/04/14 06:55:51;;;;;;;16.75;4.63;;;;;;;15.17;82.51;64683.81;5394900;26;20003;-74
2024/04/14 06:58:18;;;;;;;15.00;4.60;;;;;;;15.04;82.65;64688.72;5426464;26;20022;-75
2024/04/14 07:00:44;;;;;;;15.88;4.85;;;;;;;15.03;82.01;64676.50;5404437;26;20010;-73
2024/04/14 07:03:11;;;;;;;16.25;4.30;;;;;;;15.02;83.13;64699.06;5421024;26;20000;-72
2024/04/14 07:05:37;;;;;;;15.85;4.43;;;;;;;15.00;83.42;64692.13;5433469;26;20002;-72
2024/04/14 07:08:04;;;;;;;15.70;4.93;;;;;;;15.10;83.67;64666.53;5425672;26;20000;-72
2024/04/14 07:10:30;;;;;;;15.55;4.63;;;;;;;15.12;84.71;64720.91;5406235;26;20002;-71
2024/04/14 07:12:56;;;;;;;15.90;4.72;;;;;;;15.12;83.60;64734.09;5435140;26;20457;-72
2024/04/14 07:15:22;;;;;;;17.60;5.05;;;;;;;15.17;84.19;64681.19;5423500;26;19995;-73
2024/04/14 07:17:48;;;;;;;16.80;4.57;;;;;;;15.27;84.00;64706.22;5415084;26;20470;-72
2024/04/14 07:20:14;;;;;;;15.68;4.90;;;;;;;15.26;84.56;64730.88;5422787;26;20000;-71
2024/04/14 07:22:41;;;;;;;16.55;4.72;;;;;;;15.27;83.91;64732.00;5423514;26;20004;-72
2024/04/14 07:25:07;;;;;;;15.77;4.57;;;;;;;15.28;83.09;64727.88;5410759;26;19999;-72
2024/04/14 07:27:33;;;;;;;16.80;4.43;;;;;;;15.38;83.76;64746.47;5438387;26;19999;-72
2024/04/14 07:29:59;;;;;;;17.35;5.32;;;;;;;15.42;83.94;64767.41;5418179;26;20080;-71
2024/04/14 07:32:25;;;;;;;15.45;4.32;;;;;;;15.52;83.86;64739.16;5396305;26;20010;-72
2024/04/14 07:34:51;;;;;;;14.88;4.38;;;;;;;15.56;82.54;64714.09;5443273;26;19992;-72
2024/04/14 07:37:17;;;;;;;16.27;4.45;;;;;;;15.63;81.49;64756.28;5429140;26;20027;-72
2024/04/14 07:39:43;;;;;;;15.18;4.25;;;;;;;15.77;82.48;64778.88;5436291;26;20076;-72
2024/04/14 07:42:10;;;;;;;15.63;4.25;;;;;;;15.81;80.10;64781.34;5439615;26;20017;-72
2024/04/14 07:44:36;;;;;;;16.52;4.45;;;;;;;16.02;80.29;64793.38;5416012;26;20443;-72
2024/04/14 07:47:02;;;;;;;16.13;4.93;;;;;;;16.12;79.12;64819.94;5422730;26;20017;-71
2024/04/14 07:49:28;;;;;;;16.63;4.50;;;;;;;16.17;79.59;64830.88;5435515;26;19995;-72
2024/04/14 07:51:54;;;;;;;15.27;4.13;;;;;;;16.25;78.68;64802.97;5406790;26;20010;-71
2024/04/14 07:54:20;;;;;;;14.93;4.28;;;;;;;16.49;77.36;64845.94;5430520;26;20358;-71
2024/04/14 07:56:47;;;;;;;15.35;4.18;;;;;;;16.76;75.54;64861.53;5430009;26;20006;-71
2024/04/14 07:59:13;;;;;;;15.32;4.28;;;;;;;16.85;75.05;64927.19;5425746;26;19995;-70
2024/04/14 08:01:39;;;;;;;15.13;4.43;;;;;;;16.74;74.11;64920.03;5438444;26;20455;-70
2024/04/14 08:04:05;;;;;;;13.40;3.92;;;;;;;16.69;75.88;64915.50;5423484;26;20006;-71
2024/04/14 08:06:31;;;;;;;15.52;4.30;;;;;;;16.54;77.43;64911.75;5436032;26;20007;-69
2024/04/14 08:08:57;;;;;;;15.63;4.80;;;;;;;16.21;76.36;64838.03;5434706;26;20011;-70
2024/04/14 08:11:24;;;;;;;15.38;4.55;;;;;;;16.17;77.68;64841.97;5430789;26;20078;-73
2024/04/14 08:13:51;;;;;;;16.30;4.80;;;;;;;16.06;78.60;64795.25;5433295;26;19995;-69
2024/04/14 08:16:17;;;;;;;16.75;4.70;;;;;;;16.07;79.16;64809.56;5444471;26;20011;-70
2024/04/14 08:18:45;;;;;;;14.75;4.57;;;;;;;16.16;79.16;64846.16;5423058;26;19995;-71
2024/04/14 08:21:11;;;;;;;14.07;3.90;;;;;;;16.09;77.80;64828.25;5434348;26;20075;-71
2024/04/14 08:23:37;;;;;;;15.93;4.18;;;;;;;16.23;78.51;64851.41;5430124;26;20036;-71
2024/04/14 08:26:05;;;;;;;17.40;4.22;;;;;;;16.24;77.73;64889.50;5435798;26;19998;-71
2024/04/14 08:28:31;;;;;;;14.68;4.38;;;;;;;16.10;77.77;64829.38;5438643;26;20010;-71
2024/04/14 08:30:57;;;;;;;16.92;4.65;;;;;;;16.03;78.16;64826.72;5408775;26;20464;-70
2024/04/14 08:33:23;;;;;;;17.85;4.90;;;;;;;15.95;77.38;64817.69;5433006;26;20012;-70
2024/04/14 08:35:49;;;;;;;16.15;4.78;;;;;;;15.93;77.83;64822.78;5425095;26;20012;-70
2024/04/14 08:38:16;;;;;;;14.60;4.20;;;;;;;15.94;78.36;64837.13;5448941;26;19999;-70
2024/04/14 08:40:54;;;;;;;14.55;4.13;;;;;;;15.81;77.58;64781.34;5404349;26;20396;-72
2024/04/14 08:43:23;;;;;;;16.35;4.60;;;;;;;15.97;78.11;64829.94;5438289;26;20010;-71
2024/04/14 08:45:53;;;;;;;17.50;4.53;;;;;;;15.88;76.04;64788.69;5413064;26;20003;-71
2024/04/14 08:48:20;;;;;;;18.10;4.28;;;;;;;15.42;76.18;64719.94;5404344;26;20071;-70
2024/04/14 08:50:47;;;;;;;14.05;3.50;;;;;;;15.16;76.99;64714.31;5431058;26;19995;-70
2024/04/14 08:53:15;;;;;;;14.02;3.78;;;;;;;15.05;77.93;64694.56;5424150;26;20347;-70
2024/04/14 08:55:42;;;;;;;17.67;3.58;;;;;;;15.03;78.65;64689.66;5406157;26;19999;-71
2024/04/14 08:58:09;;;;;;;15.27;3.75;;;;;;;15.35;77.35;64704.13;5398369;26;20434;-70
2024/04/14 09:00:37;;;;;;;18.35;3.92;;;;;;;15.97;77.03;64787.72;5424846;26;20463;-71
2024/04/14 09:03:04;;;;;;;13.73;3.60;;;;;;;16.05;75.23;64799.97;5426433;26;20007;-71
2024/04/14 09:05:34;;;;;;;15.68;4.30;;;;;;;15.97;74.58;64829.94;5402644;26;19999;-72
2024/04/14 09:08:00;;;;;;;16.88;4.00;;;;;;;15.65;74.67;64726.88;5408000;26;20002;-73
2024/04/14 09:10:27;;;;;;;16.77;4.10;;;;;;;15.96;74.14;64803.00;5431658;26;19995;-73
2024/04/14 09:12:56;;;;;;;14.30;3.88;;;;;;;15.82;74.70;64779.84;5424623;26;20003;-74
2024/04/14 09:15:22;;;;;;;15.77;4.05;;;;;;;15.75;75.08;64760.81;5426174;26;20010;-71
2024/04/14 09:17:48;;;;;;;16.45;4.47;;;;;;;15.64;74.13;64762.13;5420892;26;20000;-72
2024/04/14 09:20:14;;;;;;;13.55;3.45;;;;;;;15.74;75.28;64780.75;5388961;26;20037;-71
2024/04/14 09:22:40;;;;;;;13.85;4.07;;;;;;;15.75;74.79;64761.38;5434699;26;20450;-71
2024/04/14 09:25:08;;;;;;;13.35;3.70;;;;;;;15.85;74.31;64785.84;5440285;26;20012;-72
2024/04/14 09:27:34;;;;;;;15.07;3.67;;;;;;;16.43;73.41;64838.56;5391164;26;20030;-72
2024/04/14 09:30:19;;;;;;;14.55;3.55;;;;;;;16.81;70.64;64920.63;5398956;26;20012;-72
2024/04/14 09:32:47;;;;;;;13.25;3.60;;;;;;;16.75;69.94;64890.03;5407333;26;20403;-72
2024/04/14 09:35:13;;;;;;;11.98;3.67;;;;;;;16.52;69.98;64861.94;5393878;26;20378;-73
2024/04/14 09:37:40;;;;;;;13.30;3.60;;;;;;;16.53;69.27;64854.59;5407059;26;19999;-73
2024/04/14 09:40:10;;;;;;;14.70;3.75;;;;;;;16.79;67.70;64873.44;5393274;26;20011;-73
2024/04/14 09:42:36;;;;;;;14.63;3.30;;;;;;;17.04;68.13;64901.13;5445182;26;20003;-73
2024/04/14 09:45:06;;;;;;;12.02;3.22;;;;;;;17.38;67.64;64985.47;5394227;26;19991;-73
2024/04/14 09:47:33;;;;;;;12.52;3.40;;;;;;;16.97;66.87;64938.16;5422393;26;20019;-73
2024/04/14 09:49:59;;;;;;;17.10;3.75;;;;;;;17.35;66.96;64940.34;5402380;26;19991;-73
2024/04/14 09:52:25;;;;;;;15.15;4.07;;;;;;;17.73;64.36;65008.09;5397677;26;20095;-73
2024/04/14 09:54:53;;;;;;;13.70;3.40;;;;;;;18.03;65.27;65087.06;5405232;26;20007;-72
2024/04/14 09:57:21;;;;;;;14.50;3.50;;;;;;;17.94;63.92;65079.50;5397504;26;20842;-72
2024/04/14 09:59:47;;;;;;;15.13;3.55;;;;;;;17.95;64.99;65051.53;5436718;26;19999;-72
2024/04/14 10:02:27;;;;;;;14.02;3.40;;;;;;;17.58;64.18;65000.19;5399088;26;20825;-72
2024/04/14 10:04:54;;;;;;;15.57;4.22;;;;;;;17.71;66.16;65024.91;5428610;26;20007;-72
2024/04/14 10:07:21;;;;;;;14.13;3.60;;;;;;;17.59;65.62;65035.69;5412443;26;20082;-72
2024/04/14 10:09:49;;;;;;;14.23;3.88;;;;;;;17.25;67.31;64942.25;5394164;26;20001;-72
2024/04/14 10:12:19;;;;;;;14.25;3.85;;;;;;;17.27;65.34;64984.75;5379276;26;20091;-72
2024/04/14 10:14:47;;;;;;;14.52;3.42;;;;;;;17.48;65.89;64981.50;5425993;26;20870;-73
2024/04/14 10:17:13;;;;;;;13.30;3.80;;;;;;;17.69;67.25;65035.88;5397762;26;20016;-72
2024/04/14 10:19:40;;;;;;;12.75;3.60;;;;;;;17.80;65.08;65026.59;5397345;26;19999;-72
2024/04/14 10:22:11;;;;;;;13.57;3.50;;;;;;;17.68;65.64;65022.06;5419521;26;19999;-72
2024/04/14 10:24:48;;;;;;;11.98;3.30;;;;;;;17.55;65.77;65031.19;5423276;26;20427;-72
2024/04/14 10:27:15;;;;;;;12.70;3.35;;;;;;;17.49;63.44;64982.06;5403276;26;20006;-72
2024/04/14 10:29:44;;;;;;;14.88;4.07;;;;;;;17.54;66.49;65008.31;5428711;26;20003;-73
2024/04/14 10:32:12;;;;;;;16.52;4.15;;;;;;;17.41;66.16;64980.94;5403517;26;20002;-72
2024/04/14 10:34:39;;;;;;;15.20;3.65;;;;;;;17.37;65.27;64984.91;5402337;26;19999;-73
2024/04/14 10:37:05;;;;;;;13.48;3.50;;;;;;;17.25;65.63;64942.25;5436135;26;20003;-72
2024/04/14 10:39:32;;;;;;;15.82;3.95;;;;;;;17.32;64.81;64992.47;5402448;26;20442;-71
2024/04/14 10:41:58;;;;;;;14.63;3.75;;;;;;;17.28;66.50;64943.00;5433919;26;20439;-71
2024/04/14 10:44:24;;;;;;;12.55;3.30;;;;;;;17.74;65.02;65006.56;5430078;26;20036;-71
2024/04/14 10:46:51;;;;;;;12.95;3.20;;;;;;;18.11;63.67;65074.41;5418398;26;19998;-71
2024/04/14 10:49:18;;;;;;;12.15;3.00;;;;;;;18.75;63.13;65155.25;5395366;26;20028;-71
2024/04/14 10:51:44;;;;;;;12.48;3.08;;;;;;;18.45;61.75;65125.03;5408570;26;20100;-71
2024/04/14 10:54:10;;;;;;;13.40;3.30;;;;;;;17.92;61.67;65050.22;5423681;26;19999;-71
2024/04/14 10:56:36;;;;;;;12.73;3.08;;;;;;;18.02;61.29;65078.00;5423503;26;20009;-71
2024/04/14 10:59:02;;;;;;;15.32;3.20;;;;;;;17.81;62.24;65040.97;5438626;26;20011;-72
2024/04/14 11:01:28;;;;;;;14.80;3.28;;;;;;;17.60;62.81;64993.94;5396354;26;20011;-72
2024/04/14 11:03:55;;;;;;;13.55;3.20;;;;;;;17.50;63.02;65009.63;5406386;26;20007;-72
2024/04/14 11:06:21;;;;;;;9.45;2.70;;;;;;;17.27;63.99;64974.16;5446745;26;20009;-72
2024/04/14 11:08:48;;;;;;;13.02;3.20;;;;;;;17.08;65.42;64923.59;5390417;26;20034;-71
2024/04/14 11:11:14;;;;;;;13.30;3.10;;;;;;;16.94;65.20;64913.59;5399284;26;20023;-72
2024/04/14 11:13:42;;;;;;;12.93;3.13;;;;;;;16.97;65.52;64935.50;5434684;26;20008;-71
2024/04/14 11:16:09;;;;;;;12.38;2.97;;;;;;;17.16;65.68;64961.16;5360942;26;20335;-71
2024/04/14 11:18:35;;;;;;;9.90;2.40;;;;;;;16.83;61.83;64917.00;5397579;26;20007;-71
2024/04/14 11:21:01;;;;;;;8.13;2.20;;;;;;;16.83;63.89;64925.53;5421872;26;20027;-72